createdAt,value
2018-07-16T00:02:58.290Z,21.10
2018-07-16T00:08:01.364Z,21.00
2018-07-16T00:13:04.363Z,21.00
2018-07-16T00:18:07.383Z,20.90
2018-07-16T00:23:10.536Z,20.90
2018-07-16T00:28:13.580Z,20.80
2018-07-16T00:33:16.587Z,20.70
2018-07-16T00:38:19.599Z,20.70
2018-07-16T00:43:22.599Z,20.70
2018-07-16T00:48:25.609Z,20.60
2018-07-16T00:53:28.639Z,20.60
2018-07-16T00:58:31.699Z,20.60
2018-07-16T01:03:34.719Z,20.50
2018-07-16T01:08:37.750Z,20.50
2018-07-16T01:13:40.805Z,20.50
2018-07-16T01:18:43.859Z,20.40
2018-07-16T01:23:46.889Z,20.30
2018-07-16T01:28:49.963Z,20.30
2018-07-16T01:33:53.024Z,20.20
2018-07-16T01:38:56.028Z,20.10
2018-07-16T01:43:59.139Z,20.00
2018-07-16T01:49:02.143Z,20.00
2018-07-16T01:54:05.166Z,19.90
2018-07-16T01:59:08.196Z,19.80
2018-07-16T02:04:11.247Z,19.70
2018-07-16T02:09:14.319Z,19.70
2018-07-16T02:14:17.459Z,19.60
2018-07-16T02:19:20.558Z,19.50
2018-07-16T02:24:23.668Z,19.50
2018-07-16T02:29:26.781Z,19.40
2018-07-16T02:34:29.879Z,19.40
2018-07-16T02:39:32.984Z,19.30
2018-07-16T02:44:36.098Z,19.30
2018-07-16T02:49:39.109Z,19.30
2018-07-16T02:54:42.192Z,19.20
2018-07-16T02:59:45.227Z,19.10
2018-07-16T03:04:48.416Z,19.10
2018-07-16T03:09:51.473Z,18.90
2018-07-16T03:14:54.616Z,18.90
2018-07-16T03:19:57.645Z,18.90
2018-07-16T03:25:00.711Z,18.80
2018-07-16T03:30:03.757Z,18.80
2018-07-16T03:35:06.848Z,18.80
2018-07-16T03:40:09.873Z,18.80
2018-07-16T03:45:12.943Z,18.80
2018-07-16T03:50:16.042Z,18.70
2018-07-16T03:55:19.048Z,18.80
2018-07-16T04:00:22.091Z,18.80
2018-07-16T04:05:25.143Z,18.90
2018-07-16T04:10:28.163Z,18.90
2018-07-16T04:15:31.166Z,18.90
2018-07-16T04:20:34.192Z,19.10
2018-07-16T04:25:37.273Z,19.20
2018-07-16T04:30:40.481Z,19.20
2018-07-16T04:35:43.492Z,19.30
2018-07-16T04:40:46.588Z,19.40
2018-07-16T04:45:49.603Z,19.50
2018-07-16T04:50:52.698Z,19.50
2018-07-16T04:55:55.721Z,19.70
2018-07-16T05:00:58.980Z,19.80
2018-07-16T05:06:02.038Z,20.00
2018-07-16T05:11:05.104Z,20.10
2018-07-16T05:16:08.228Z,20.20
2018-07-16T05:21:11.599Z,20.50
2018-07-16T05:26:14.972Z,20.60
2018-07-16T05:31:18.332Z,20.70
2018-07-16T05:36:21.732Z,20.90
2018-07-16T05:41:25.097Z,20.90
2018-07-16T05:46:28.413Z,20.90
2018-07-16T05:51:31.780Z,21.10
2018-07-16T05:56:35.172Z,21.30
2018-07-16T06:01:38.603Z,21.50
2018-07-16T06:06:42.019Z,21.80
2018-07-16T06:11:45.369Z,22.00
2018-07-16T06:16:48.812Z,22.10
2018-07-16T06:21:51.977Z,22.10
2018-07-16T06:26:55.063Z,22.10
2018-07-16T06:31:58.069Z,22.20
2018-07-16T06:37:01.083Z,22.30
2018-07-16T06:42:04.143Z,22.50
2018-07-16T06:47:07.192Z,22.80
2018-07-16T06:52:10.291Z,22.50
2018-07-16T06:57:13.311Z,22.70
2018-07-16T07:02:16.352Z,23.00
2018-07-16T07:07:20.740Z,23.20
2018-07-16T07:12:24.089Z,23.20
2018-07-16T07:17:27.107Z,23.00
2018-07-16T07:22:30.151Z,22.80
2018-07-16T07:27:33.178Z,22.80
2018-07-16T07:32:36.227Z,23.10
2018-07-16T07:37:39.271Z,23.50
2018-07-16T07:42:42.372Z,23.50
2018-07-16T07:47:45.630Z,23.50
2018-07-16T07:52:48.599Z,23.60
2018-07-16T07:57:51.608Z,23.70
2018-07-16T08:02:54.613Z,23.90
2018-07-16T08:07:57.624Z,23.70
2018-07-16T08:13:00.727Z,23.50
2018-07-16T08:18:03.784Z,23.50
2018-07-16T08:23:06.924Z,23.60
2018-07-16T08:28:09.976Z,24.00
2018-07-16T08:33:12.986Z,23.90
2018-07-16T08:38:16.119Z,23.80
2018-07-16T08:43:19.125Z,23.90
2018-07-16T08:48:22.180Z,24.40
2018-07-16T08:53:25.316Z,24.40
2018-07-16T08:58:28.344Z,24.40
2018-07-16T09:03:31.415Z,24.60
2018-07-16T09:08:35.656Z,24.90
2018-07-16T09:13:38.897Z,24.90
2018-07-16T09:18:41.777Z,25.00
2018-07-16T09:23:44.779Z,25.20
2018-07-16T09:28:47.799Z,25.80
2018-07-16T09:33:50.867Z,26.00
2018-07-16T09:38:53.904Z,26.60
2018-07-16T09:43:56.971Z,26.90
2018-07-16T09:49:00.007Z,28.00
2018-07-16T09:54:03.089Z,28.50
2018-07-16T09:59:06.195Z,28.20
2018-07-16T10:04:09.335Z,27.90
2018-07-16T10:09:12.355Z,27.70
2018-07-16T10:14:15.534Z,27.00
2018-07-16T10:19:18.516Z,27.50
2018-07-16T10:24:21.547Z,27.60
2018-07-16T10:29:24.563Z,27.40
2018-07-16T10:39:30.685Z,26.60
2018-07-16T10:44:33.718Z,27.10
2018-07-16T10:49:36.824Z,27.80
2018-07-16T10:54:40.268Z,27.90
2018-07-16T10:59:43.454Z,27.90
2018-07-16T11:04:46.596Z,27.60
2018-07-16T11:09:49.663Z,27.80
2018-07-16T11:14:52.809Z,28.20
2018-07-16T11:19:55.827Z,28.70
2018-07-16T11:24:58.859Z,28.10
2018-07-16T11:30:01.907Z,28.50
2018-07-16T11:35:05.027Z,29.50
2018-07-16T11:40:08.039Z,30.20
2018-07-16T11:45:11.063Z,30.30
2018-07-16T11:50:14.140Z,30.50
2018-07-16T11:55:17.458Z,29.60
2018-07-16T12:00:20.513Z,28.80
2018-07-16T12:05:23.598Z,29.10
2018-07-16T12:10:26.652Z,30.30
2018-07-16T12:15:29.672Z,31.30
2018-07-16T12:20:32.716Z,31.40
2018-07-16T12:25:35.716Z,31.80
2018-07-16T12:30:38.760Z,32.40
2018-07-16T12:35:41.775Z,32.50
2018-07-16T12:40:44.843Z,32.60
2018-07-16T12:45:47.847Z,32.20
2018-07-16T12:50:50.877Z,31.90
2018-07-16T12:55:53.993Z,31.50
2018-07-16T13:00:57.006Z,31.00
2018-07-16T13:06:00.044Z,31.00
2018-07-16T13:11:03.091Z,31.60
2018-07-16T13:16:06.108Z,31.50
2018-07-16T13:21:09.770Z,30.80
2018-07-16T13:26:12.903Z,31.10
2018-07-16T13:31:15.919Z,30.50
2018-07-16T13:36:18.939Z,31.00
2018-07-16T13:41:21.943Z,32.00
2018-07-16T13:46:26.448Z,31.80
2018-07-16T13:51:29.448Z,31.00
2018-07-16T13:56:32.475Z,31.20
2018-07-16T14:01:35.477Z,31.60
2018-07-16T14:06:38.492Z,32.20
2018-07-16T14:11:41.541Z,31.70
2018-07-16T14:16:44.563Z,30.70
2018-07-16T14:21:47.668Z,31.00
2018-07-16T14:26:50.916Z,31.90
2018-07-16T14:31:53.971Z,31.40
2018-07-16T14:36:56.962Z,30.50
2018-07-16T14:42:00.114Z,30.30
2018-07-16T14:52:06.278Z,32.50
2018-07-16T14:57:09.361Z,33.10
2018-07-16T15:02:12.423Z,33.60
2018-07-16T15:07:15.451Z,33.50
2018-07-16T15:12:18.494Z,32.40
2018-07-16T15:17:21.557Z,32.50
2018-07-16T15:22:24.603Z,33.40
2018-07-16T15:27:27.626Z,33.30
2018-07-16T15:32:30.651Z,33.50
2018-07-16T15:37:33.758Z,33.30
2018-07-16T15:42:36.767Z,32.30
2018-07-16T15:47:39.863Z,31.40
2018-07-16T15:52:42.900Z,30.90
2018-07-16T15:57:45.927Z,30.30
2018-07-16T16:02:49.012Z,29.90
2018-07-16T16:07:52.088Z,30.20
2018-07-16T16:12:55.117Z,30.70
2018-07-16T16:17:58.150Z,31.40
2018-07-16T16:23:01.530Z,31.80
2018-07-16T16:28:04.699Z,32.30
2018-07-16T16:33:07.832Z,32.10
2018-07-16T16:38:10.800Z,32.30
2018-07-16T16:43:13.866Z,32.30
2018-07-16T16:48:16.974Z,31.60
2018-07-16T16:53:20.056Z,30.90
2018-07-16T16:58:23.206Z,30.30
2018-07-16T17:03:26.231Z,29.70
2018-07-16T17:08:29.251Z,29.50
2018-07-16T17:13:32.358Z,30.20
2018-07-16T17:18:35.430Z,30.70
2018-07-16T17:23:38.774Z,30.60
2018-07-16T17:28:41.772Z,30.60
2018-07-16T17:33:44.791Z,30.70
2018-07-16T17:38:48.230Z,30.40
2018-07-16T17:43:51.500Z,29.90
2018-07-16T17:48:54.891Z,29.60
2018-07-16T17:53:58.211Z,29.50
2018-07-16T17:59:01.571Z,29.40
2018-07-16T18:04:05.037Z,29.50
2018-07-16T18:09:09.077Z,29.20
2018-07-16T18:14:12.555Z,29.00
2018-07-16T18:19:17.065Z,28.80
2018-07-16T18:24:20.375Z,28.60
2018-07-16T18:29:23.783Z,28.50
2018-07-16T18:34:27.184Z,28.20
2018-07-16T18:39:30.632Z,28.10
2018-07-16T18:44:34.131Z,28.00
2018-07-16T18:49:37.188Z,27.80
2018-07-16T18:54:40.309Z,27.80
2018-07-16T18:59:43.407Z,27.50
2018-07-16T19:04:46.520Z,27.40
2018-07-16T19:09:50.148Z,27.40
2018-07-16T19:14:53.247Z,27.20
2018-07-16T19:19:56.627Z,27.00
2018-07-16T19:24:59.764Z,26.80
2018-07-16T19:30:02.784Z,26.70
2018-07-16T19:35:05.915Z,26.50
2018-07-16T19:40:09.591Z,26.40
2018-07-16T19:45:12.611Z,26.30
2018-07-16T19:50:15.643Z,26.10
2018-07-16T19:55:18.738Z,26.10
2018-07-16T20:00:21.984Z,26.00
2018-07-16T20:05:24.984Z,25.90
2018-07-16T20:10:28.015Z,25.80
2018-07-16T20:15:31.091Z,25.70
2018-07-16T20:20:44.525Z,25.60
2018-07-16T20:25:47.588Z,25.50
2018-07-16T20:30:50.785Z,25.40
2018-07-16T20:35:53.829Z,25.30
2018-07-16T20:40:56.876Z,25.10
2018-07-16T20:45:59.996Z,25.00
2018-07-16T20:51:03.048Z,24.90
2018-07-16T20:56:06.248Z,24.80
2018-07-16T21:06:12.110Z,24.50
2018-07-16T21:11:15.125Z,24.40
2018-07-16T21:16:18.156Z,24.20
2018-07-16T21:21:21.202Z,24.20
2018-07-16T21:26:24.529Z,24.10
2018-07-16T21:31:27.544Z,23.90
2018-07-16T21:36:30.599Z,23.90
2018-07-16T21:41:33.627Z,23.80
2018-07-16T21:46:36.691Z,23.80
2018-07-16T21:51:39.739Z,23.60
2018-07-16T21:56:42.768Z,23.60
2018-07-16T22:01:46.571Z,23.50
2018-07-16T22:06:49.676Z,23.30
2018-07-16T22:11:52.831Z,23.30
2018-07-16T22:16:55.883Z,23.10
2018-07-16T22:21:58.943Z,22.90
2018-07-16T22:27:02.034Z,22.90
2018-07-16T22:32:05.096Z,22.70
2018-07-16T22:37:08.203Z,22.70
2018-07-16T22:42:11.207Z,22.80
2018-07-16T22:47:14.243Z,22.80
2018-07-16T22:52:17.276Z,22.60
2018-07-16T22:57:20.299Z,22.50
2018-07-16T23:02:23.527Z,22.50
2018-07-16T23:07:26.578Z,22.50
2018-07-16T23:12:29.648Z,22.50
2018-07-16T23:17:32.659Z,22.30
2018-07-16T23:22:47.337Z,22.30
2018-07-16T23:27:50.417Z,22.20
2018-07-16T23:32:53.440Z,22.00
2018-07-16T23:37:56.475Z,22.10
2018-07-16T23:42:59.503Z,22.10
2018-07-16T23:48:02.508Z,22.20
2018-07-16T23:53:05.616Z,22.20
2018-07-16T23:58:08.740Z,22.20
